Latest Weather Observations for Camooweal

IDD60801

Issued at 4:31 am CST Monday 27 April 2015 (issued every 30 minutes, with the page automatically refreshed every 10 minutes)

About weather observations | Map of weather stations | Latest weather observations for NT | Other Formats
Station Details ID: 037010 Name: CAMOOWEAL TOWNSHIP Lat: -19.92 Lon: 138.12 Height: 231.2 m
Data from the previous 72 hours. | See also: Recent months at Camooweal
Date/Time
CST
Temp
°C
App
Temp
°C
Dew
Point
Rel
Hum
%
Delta-T
°C
Wind Press
QNH
hPa
Press
MSL
hPa
Rain
since 9 am
mm
Dir
 
Spd
km/h
Gust
km/h
Spd
kts
Gust
kts
27/04:30am 14.2 9.5 0.8 40 5.8 SSE 15 19 8 10 1019.1 1017.9 0.0
27/04:00am 14.5 10.3 1.4 41 5.7 SSE 13 19 7 10 1018.9 1017.7 0.0
27/03:30am 14.5 9.9 1.4 41 5.7 SSE 15 19 8 10 1019.1 1017.9 0.0
27/03:00am 14.6 10.4 1.5 41 5.8 SSE 13 17 7 9 1019.1 1017.9 0.0
27/02:30am 14.8 10.6 1.7 41 5.8 SSE 13 17 7 9 1019.0 1017.8 0.0
27/02:00am 15.7 11.1 1.8 39 6.2 ESE 15 17 8 9 1018.9 1017.7 0.0
27/01:30am 16.2 11.7 1.9 38 6.4 SSE 15 20 8 11 1019.0 1017.8 0.0
27/01:00am 16.7 11.8 2.0 37 6.7 SSE 17 22 9 12 1019.1 1017.9 0.0
27/12:30am 16.8 12.7 2.0 37 6.7 SE 13 19 7 10 1019.3 1018.1 0.0
27/12:00am 17.6 13.1 2.4 36 7.0 SE 15 20 8 11 1019.5 1018.3 0.0
 
Date/Time
CST
Temp
°C
App
Temp
°C
Dew
Point
Rel
Hum
%
Delta-T
°C
Wind Press
QNH
hPa
Press
MSL
hPa
Rain
since 9 am
mm
Dir
 
Spd
km/h
Gust
km/h
Spd
kts
Gust
kts
26/11:30pm 18.3 13.4 2.2 34 7.4 SE 17 22 9 12 1019.4 1018.2 0.0
26/11:00pm 18.8 13.6 2.2 33 7.7 SSE 19 24 10 13 1019.4 1018.2 0.0
26/10:30pm 19.3 14.1 2.2 32 7.9 SSE 19 26 10 14 1019.5 1018.3 0.0
26/10:00pm 19.7 14.2 2.1 31 8.2 SSE 20 26 11 14 1019.5 1018.3 0.0
26/09:30pm 20.4 15.0 2.3 30 8.5 SSE 20 28 11 15 1019.4 1018.2 0.0
26/09:00pm 20.7 15.2 2.0 29 8.7 SSE 20 26 11 14 1019.3 1018.1 0.0
26/08:30pm 20.5 15.5 1.4 28 8.8 S 17 22 9 12 1019.2 1018.0 0.0
26/08:00pm 20.2 15.5 1.1 28 8.7 S 15 17 8 9 1018.9 1017.7 0.0
26/07:30pm 21.2 16.9 1.0 26 9.3 S 13 17 7 9 1018.6 1017.4 0.0
26/07:00pm 22.7 18.0 1.1 24 10.1 SSE 15 19 8 10 1018.0 1016.8 0.0
26/06:30pm 23.5 18.5 1.2 23 10.5 SE 17 22 9 12 1017.4 1016.2 0.0
26/06:00pm 24.6 18.9 0.8 21 11.2 SSE 20 32 11 17 1017.1 1015.8 0.0
26/05:30pm 25.5 19.9 0.9 20 11.7 SSE 20 28 11 15 1016.9 1015.6 0.0
26/05:00pm 26.1 19.9 0.0 18 12.2 SSE 22 35 12 19 1016.5 1015.2 0.0
26/04:30pm 26.3 19.8 0.1 18 12.3 SE 24 39 13 21 1016.4 1015.1 0.0
26/04:00pm 26.6 19.7 0.4 18 12.4 SSE 26 37 14 20 1016.2 1014.9 0.0
26/03:30pm 26.8 20.7 0.5 18 12.5 SE 22 32 12 17 1016.2 1014.9 0.0
26/03:00pm 26.2 19.8 0.8 19 12.1 SSE 24 35 13 19 1016.3 1015.0 0.0
26/02:30pm 26.3 19.4 0.1 18 12.3 SE 26 35 14 19 1016.6 1015.3 0.0
26/02:00pm 25.9 18.8 1.2 20 11.8 SSE 28 39 15 21 1016.8 1015.5 0.0
26/01:30pm 25.7 18.7 1.8 21 11.5 SSE 28 39 15 21 1017.2 1015.9 0.0
26/01:00pm 24.3 17.5 0.6 21 11.1 SE 26 35 14 19 1017.7 1016.5 0.0
26/12:30pm 25.8 19.8 3.1 23 11.2 SE 24 35 13 19 1018.1 1016.9 0.0
26/12:00pm 24.2 17.7 2.9 25 10.4 SE 26 39 14 21 1018.6 1017.4 0.0
26/11:30am 24.4 17.8 4.2 27 10.1 SE 28 37 15 20 1019.2 1018.0 0.0
26/11:00am 22.0 14.4 2.7 28 9.2 SE 32 43 17 23 1019.8 1018.5 0.0
26/10:30am 21.3 14.1 3.0 30 8.7 SE 30 43 16 23 1020.3 1019.0 0.0
26/10:00am 20.8 13.1 2.1 29 8.8 SE 32 43 17 23 1020.8 1019.5 0.0
26/09:30am 20.2 12.3 2.5 31 8.3 SE 33 44 18 24 1021.0 1019.7 0.0
26/09:00am 18.4 11.2 3.1 36 7.2 SE 30 39 16 21 1021.0 1019.7 0.0
26/08:30am 17.1 10.5 2.3 37 6.7 SSE 26 37 14 20 1020.8 1019.5 0.0
26/08:00am 15.2 9.3 1.4 39 6.1 SSE 22 35 12 19 1020.6 1019.3 0.0
26/07:30am 13.8 8.8 1.1 42 5.5 SSE 17 24 9 13 1020.4 1019.1 0.0
26/07:00am 12.5 7.8 0.9 45 4.9 SE 15 19 8 10 1020.0 1018.7 0.0
26/06:30am 12.6 7.9 1.0 45 4.9 SE 15 22 8 12 1019.6 1018.4 0.0
26/06:00am 13.3 7.7 1.0 43 5.3 SSE 20 28 11 15 1019.2 1018.0 0.0
26/05:30am 13.7 8.0 0.7 41 5.6 SSE 20 30 11 16 1019.0 1017.8 0.0
26/05:00am 14.0 8.6 1.0 41 5.6 SSE 19 26 10 14 1018.9 1017.7 0.0
26/04:30am 14.5 8.9 1.1 40 5.8 SSE 20 32 11 17 1018.7 1017.5 0.0
26/04:00am 14.4 8.8 1.3 41 5.7 SSE 20 28 11 15 1018.7 1017.5 0.0
26/03:30am 14.7 9.2 1.6 41 5.8 SSE 20 28 11 15 1018.8 1017.6 0.0
26/03:00am 14.5 9.2 2.1 43 5.5 S 19 24 10 13 1018.7 1017.5 0.0
26/02:30am 14.9 10.1 2.4 43 5.6 S 17 22 9 12 1018.8 1017.6 0.0
26/02:00am 15.3 10.5 2.5 42 5.8 SSE 17 20 9 11 1018.9 1017.7 0.0
26/01:30am 16.1 10.9 2.5 40 6.2 SE 19 26 10 14 1019.0 1017.8 0.0
26/01:00am 16.8 11.7 2.8 39 6.5 SE 19 24 10 13 1019.1 1017.9 0.0
26/12:30am 17.2 11.9 2.8 38 6.6 SSE 20 28 11 15 1019.1 1017.9 0.0
26/12:00am 17.7 12.6 2.8 37 6.9 SSE 19 26 10 14 1019.2 1018.0 0.0
 
Date/Time
CST
Temp
°C
App
Temp
°C
Dew
Point
Rel
Hum
%
Delta-T
°C
Wind Press
QNH
hPa
Press
MSL
hPa
Rain
since 9 am
mm
Dir
 
Spd
km/h
Gust
km/h
Spd
kts
Gust
kts
25/11:30pm 18.4 13.3 3.1 36 7.2 SE 19 26 10 14 1019.1 1017.9 0.0
25/11:00pm 18.7 13.6 2.9 35 7.4 SSE 19 24 10 13 1019.2 1018.0 0.0
25/10:30pm 19.3 13.6 2.6 33 7.8 SSE 22 28 12 15 1019.0 1017.8 0.0
25/10:00pm 19.9 14.5 2.7 32 8.1 SSE 20 26 11 14 1019.0 1017.8 0.0
25/09:30pm 20.3 14.6 2.6 31 8.3 SSE 22 30 12 16 1018.7 1017.5 0.0
25/09:00pm 20.8 15.4 2.6 30 8.6 SSE 20 28 11 15 1018.6 1017.4 0.0
25/08:30pm 21.2 15.8 2.5 29 8.8 SSE 20 28 11 15 1018.3 1017.1 0.0
25/08:00pm 21.7 16.3 2.4 28 9.2 SSE 20 28 11 15 1018.1 1016.9 0.0
25/07:30pm 22.2 17.0 2.3 27 9.5 S 19 26 10 14 1017.7 1016.5 0.0
25/07:00pm 22.9 17.6 1.8 25 10.0 SSE 19 26 10 14 1017.0 1015.7 0.0
25/06:30pm 23.6 18.2 2.4 25 10.2 SSE 20 28 11 15 1016.6 1015.3 0.0
25/06:00pm 24.3 18.1 1.9 23 10.7 SSE 24 35 13 19 1016.3 1015.0 0.0
25/05:30pm 25.2 18.2 2.0 22 11.2 SSE 28 39 15 21 1015.8 1014.5 0.0
25/05:00pm 26.0 18.6 2.0 21 11.7 SSE 30 41 16 22 1015.4 1014.1 0.0
25/04:30pm 26.7 19.9 3.2 22 11.7 SSE 28 37 15 20 1015.0 1013.8 0.0
25/04:00pm 26.7 19.1 2.6 21 11.9 S 32 43 17 23 1014.7 1013.5 0.0
25/03:30pm 27.5 20.0 3.2 21 12.2 SSE 32 46 17 25 1014.6 1013.4 0.0
25/03:00pm 27.5 20.0 3.2 21 12.2 SSE 32 44 17 24 1014.5 1013.3 0.0
25/02:30pm 27.3 19.7 3.1 21 12.1 SSE 32 43 17 23 1014.6 1013.4 0.0
25/02:00pm 27.6 19.9 3.3 21 12.2 SSE 33 43 18 23 1014.8 1013.6 0.0
25/01:30pm 26.6 18.4 2.5 21 11.9 S 35 50 19 27 1015.2 1013.9 0.0
25/01:00pm 26.9 18.3 2.7 21 12.0 SSE 37 50 20 27 1015.4 1014.1 0.0
25/12:30pm 26.8 19.0 2.7 21 11.9 SSE 33 44 18 24 1015.8 1014.5 0.0
25/12:07pm 26.4 18.5 2.3 21 11.8 S 33 54 18 29 1015.8 1014.5 0.0
25/12:00pm 26.6 18.5 3.2 22 11.7 SSE 35 48 19 26 1016.0 1014.7 0.0
25/11:30am 25.7 17.2 1.1 20 11.7 SE 35 48 19 26 1016.5 1015.2 0.0
25/11:00am 26.0 17.5 0.6 19 12.0 SSE 35 50 19 27 1016.8 1015.5 0.0
25/10:30am 25.4 16.5 0.8 20 11.6 SSE 37 48 20 26 1017.3 1016.1 0.0
25/10:00am 24.7 16.0 -0.4 19 11.6 SSE 35 50 19 27 1017.4 1016.2 0.0
25/09:30am 24.2 16.0 -0.9 19 11.4 SSE 32 43 17 23 1017.3 1016.1 0.0
25/09:00am 23.3 15.9 -0.9 20 10.9 SSE 28 39 15 21 1017.1 1015.8 0.0
25/08:30am 21.9 15.2 -0.8 22 10.1 SSE 24 35 13 19 1016.9 1015.6 0.0
25/08:00am 21.0 15.2 -0.3 24 9.5 SSE 20 30 11 16 1016.6 1015.3 0.0
25/07:53am 20.7 14.8 -0.6 24 9.5 SE 20 30 11 16 1016.5 1015.2 0.0
25/07:30am 15.7 12.1 0.7 36 6.5 SSW 9 9 5 5 1016.1 1014.8 0.0
25/07:00am 13.0 9.3 0.1 41 5.4 SSW 9 11 5 6 1015.7 1014.4 0.0
25/06:30am 12.3 8.7 0.4 44 5.0 SSW 9 11 5 6 1015.3 1014.0 0.0
25/06:00am 12.3 8.6 -0.2 42 5.2 SSW 9 11 5 6 1015.0 1013.8 0.0
25/05:30am 13.1 9.7 -0.9 38 5.8 SSW 7 9 4 5 1014.9 1013.7 0.0
25/05:00am 12.9 9.1 -0.7 39 5.6 SSW 9 9 5 5 1014.6 1013.4 0.0
25/04:30am 13.0 9.5 -1.3 37 5.8 SSW 7 9 4 5 1014.6 1013.4 0.0
25/04:00am 13.3 9.7 -1.8 35 6.1 SSW 7 9 4 5 1014.7 1013.5 0.0
25/03:30am 14.2 10.6 -1.8 33 6.5 SSW 7 9 4 5 1014.6 1013.4 0.0
25/03:00am 14.5 10.6 -1.2 34 6.5 SSW 9 9 5 5 1014.7 1013.5 0.0
25/02:30am 14.8 11.3 -1.7 32 6.8 SSW 7 7 4 4 1014.6 1013.4 0.0
25/02:00am 15.6 12.1 -1.4 31 7.1 SW 7 9 4 5 1014.7 1013.5 0.0
25/01:30am 17.0 13.0 -2.1 27 8.0 SSW 9 17 5 9 1014.6 1013.4 0.0
25/01:00am 19.6 15.5 -0.4 26 8.8 SSE 11 17 6 9 1014.5 1013.3 0.0
25/12:30am 18.5 14.2 -1.3 26 8.5 S 11 15 6 8 1014.5 1013.3 0.0
25/12:00am 17.2 12.9 -1.9 27 8.0 S 11 15 6 8 1014.5 1013.3 0.0
 
Date/Time
CST
Temp
°C
App
Temp
°C
Dew
Point
Rel
Hum
%
Delta-T
°C
Wind Press
QNH
hPa
Press
MSL
hPa
Rain
since 9 am
mm
Dir
 
Spd
km/h
Gust
km/h
Spd
kts
Gust
kts
24/11:30pm 17.7 13.4 -1.5 27 8.2 SSW 11 15 6 8 1014.7 1013.5 0.0
24/11:00pm 18.9 14.9 -2.1 24 8.9 SSW 9 11 5 6 1014.8 1013.6 0.0
24/10:30pm 19.3 15.4 -1.7 24 9.0 SSW 9 11 5 6 1014.6 1013.4 0.0
24/10:00pm 20.9 17.3 -2.2 21 10.0 SSW 7 9 4 5 1014.6 1013.4 0.0
24/09:30pm 21.1 16.7 -2.7 20 10.2 S 11 13 6 7 1014.6 1013.4 0.0
24/09:00pm 21.5 16.8 -1.7 21 10.2 S 13 15 7 8 1014.5 1013.3 0.0
24/08:30pm 21.4 17.1 -1.8 21 10.1 S 11 13 6 7 1014.3 1013.1 0.0
24/08:00pm 22.6 18.1 -2.9 18 11.0 S 11 13 6 7 1013.9 1012.7 0.0
24/07:30pm 23.9 19.0 -3.4 16 11.8 S 13 15 7 8 1013.5 1012.3 0.0
24/07:00pm 24.9 20.4 -3.5 15 12.4 S 11 15 6 8 1013.1 1011.8 0.0
24/06:30pm 26.1 21.2 -3.5 14 13.0 S 13 17 7 9 1012.8 1011.5 0.0
24/06:00pm 27.1 21.4 -3.7 13 13.6 S 17 20 9 11 1012.5 1011.2 0.0
24/05:30pm 28.5 22.6 -2.6 13 14.2 S 19 26 10 14 1012.1 1010.8 0.0
24/05:00pm 29.2 23.3 -2.0 13 14.5 S 19 26 10 14 1011.8 1010.5 0.0
24/04:30pm 29.3 23.3 -1.9 13 14.5 SSW 20 28 11 15 1011.8 1010.5 0.0
24/04:00pm 29.7 23.7 -1.6 13 14.7 S 20 28 11 15 1011.7 1010.4 0.0
24/03:30pm 29.8 23.8 -1.5 13 14.7 SSE 20 26 11 14 1011.6 1010.3 0.0
24/03:00pm 29.7 23.9 -1.6 13 14.7 S 19 28 10 15 1011.5 1010.2 0.0
24/02:30pm 29.8 24.5 -0.5 14 14.5 SSE 17 30 9 16 1011.6 1010.3 0.0
24/02:00pm 28.8 23.4 -1.3 14 14.1 S 17 28 9 15 1011.9 1010.6 0.0
24/01:30pm 29.4 24.1 -0.9 14 14.3 S 17 28 9 15 1012.3 1011.0 0.0
24/01:00pm 28.7 23.0 -0.5 15 13.8 S 19 30 10 16 1012.6 1011.3 0.0
24/12:30pm 28.0 22.4 -0.1 16 13.4 S 19 26 10 14 1013.1 1011.8 0.0
24/12:00pm 27.6 22.1 0.4 17 13.0 SSE 19 28 10 15 1013.5 1012.3 0.0
24/11:30am 28.1 23.6 2.3 19 12.8 SSE 15 24 8 13 1014.0 1012.8 0.0
24/11:00am 27.1 21.9 2.2 20 12.2 SSE 19 24 10 13 1014.7 1013.5 0.0
24/10:30am 26.0 20.4 1.3 20 11.9 SE 20 28 11 15 1015.3 1014.0 0.0
24/10:00am 25.5 20.0 1.6 21 11.5 SSE 20 26 11 14 1015.6 1014.3 0.0
24/09:30am 24.1 18.6 1.7 23 10.7 SE 20 28 11 15 1015.7 1014.4 0.0
24/09:00am 22.9 17.3 1.3 24 10.1 SSE 20 28 11 15 1015.7 1014.4 0.0
24/08:30am 21.3 15.7 1.0 26 9.3 SSE 20 28 11 15 1015.6 1014.3 0.0
24/08:00am 19.0 13.9 0.6 29 8.3 S 17 24 9 13 1015.3 1014.0 0.0
24/07:30am 14.5 10.9 0.4 38 6.1 SSW 9 13 5 7 1015.3 1014.0 0.0
24/07:00am 13.3 9.7 0.7 42 5.4 SSW 9 11 5 6 1015.0 1013.8 0.0
24/06:30am 12.4 8.7 0.2 43 5.1 SSW 9 9 5 5 1014.7 1013.5 0.0
24/06:00am 12.6 9.0 0.7 44 5.1 SSW 9 9 5 5 1014.3 1013.1 0.0
24/05:30am 12.8 9.6 0.5 43 5.2 SSW 7 9 4 5 1014.0 1012.8 0.0
24/05:00am 12.5 9.4 0.3 43 5.1 SSW 6 7 3 4 1013.7 1012.5 0.0
24/04:30am 12.9 9.7 1.0 44 5.1 SSW 7 9 4 5 1013.5 1012.3 0.0

Other Formats:

Comma delimited format used in spreadsheet applications
http://www.bom.gov.au/fwo/IDD60801/IDD60801.94255.axf

JavaScript Object Notation format (JSON) in row-major order
http://www.bom.gov.au/fwo/IDD60801/IDD60801.94255.json